Time;durP1;ratioP1;P1;durP2;ratioP2;P2;SDS_P1;SDS_P2;PMS_P1;PMS_P2;Temp;Humidity;BMP_temperature;BMP_pressure;BME280_temperature;BME280_humidity;BME280_pressure;Samples;Min_cycle;Max_cycle;Signal;HPM_P1;HPM_P2
2022/10/05 00:00:53;;;;;;;13.27;6.68;;;11.60;99.90;;;;;;5072758;28;20387;-55
2022/10/05 00:03:21;;;;;;;14.75;5.93;;;11.60;99.90;;;;;;5072291;28;20392;-55
2022/10/05 00:05:47;;;;;;;11.70;5.90;;;11.50;99.90;;;;;;5072984;28;20444;-55
2022/10/05 00:08:21;;;;;;;13.20;6.65;;;11.40;99.90;;;;;;5072825;28;20376;-58
2022/10/05 00:10:48;;;;;;;13.05;6.13;;;11.30;99.90;;;;;;5054678;28;20718;-57
2022/10/05 00:13:18;;;;;;;13.48;6.50;;;11.10;99.90;;;;;;5072819;28;20500;-58
2022/10/05 00:15:43;;;;;;;12.50;6.27;;;11.20;99.90;;;;;;5073350;28;20463;-57
2022/10/05 00:18:16;;;;;;;13.10;6.90;;;11.20;99.90;;;;;;5072381;28;20932;-57
2022/10/05 00:20:43;;;;;;;12.40;6.13;;;11.20;99.90;;;;;;5072109;28;20455;-57
2022/10/05 00:23:30;;;;;;;11.98;6.90;;;11.30;99.90;;;;;;5072588;28;20387;-57
2022/10/05 00:26:12;;;;;;;14.10;6.72;;;11.20;99.90;;;;;;5072457;28;20461;-57
2022/10/05 00:28:39;;;;;;;11.20;6.25;;;11.20;99.90;;;;;;5071100;28;20388;-57
2022/10/05 00:31:15;;;;;;;13.32;6.70;;;11.30;99.90;;;;;;5071482;28;20411;-57
2022/10/05 00:33:41;;;;;;;14.57;6.75;;;11.30;99.90;;;;;;5072290;28;20418;-57
2022/10/05 00:36:07;;;;;;;16.03;6.60;;;11.20;99.90;;;;;;5072391;28;20482;-57
2022/10/05 00:38:32;;;;;;;12.73;6.40;;;11.20;99.90;;;;;;5071609;28;21154;-57
2022/10/05 00:41:04;;;;;;;10.60;6.13;;;11.30;99.90;;;;;;5071966;28;20412;-57
2022/10/05 00:43:59;;;;;;;16.67;6.70;;;11.30;99.90;;;;;;5071718;28;20547;-57
2022/10/05 00:46:30;;;;;;;13.40;6.30;;;11.30;99.90;;;;;;5071732;28;20384;-57
2022/10/05 00:49:12;;;;;;;12.77;6.35;;;11.30;99.90;;;;;;5072412;28;20404;-57
2022/10/05 00:51:39;;;;;;;12.55;6.20;;;11.20;99.90;;;;;;5071413;28;20387;-57
2022/10/05 00:54:16;;;;;;;12.25;6.20;;;11.30;99.90;;;;;;5072327;28;20459;-57
2022/10/05 00:57:03;;;;;;;11.90;6.15;;;11.20;99.90;;;;;;5087371;28;20888;-57
2022/10/05 00:59:53;;;;;;;12.18;5.40;;;11.20;99.90;;;;;;5071351;28;20383;-57
2022/10/05 01:02:37;;;;;;;12.48;7.00;;;11.20;99.90;;;;;;5071802;28;20399;-57
2022/10/05 01:05:21;;;;;;;13.77;6.17;;;11.00;99.90;;;;;;5072183;28;20415;-57
2022/10/05 01:07:49;;;;;;;12.05;6.40;;;11.10;99.90;;;;;;5071926;28;20375;-57
2022/10/05 01:10:35;;;;;;;13.80;6.50;;;11.10;99.90;;;;;;5070917;28;20383;-57
2022/10/05 01:13:34;;;;;;;13.45;6.85;;;11.20;99.90;;;;;;5020536;28;20461;-57
2022/10/05 01:16:05;;;;;;;17.10;6.63;;;11.20;99.90;;;;;;5071768;28;20392;-57
2022/10/05 01:18:45;;;;;;;12.13;6.30;;;11.20;99.90;;;;;;5070930;28;20860;-57
2022/10/05 01:21:21;;;;;;;12.23;6.10;;;11.20;99.90;;;;;;5071869;28;20387;-57
2022/10/05 01:23:52;;;;;;;12.98;6.57;;;11.10;99.90;;;;;;5071661;28;20416;-57
2022/10/05 01:26:56;;;;;;;11.63;6.13;;;11.10;99.90;;;;;;5070526;28;20828;-58
2022/10/05 01:29:28;;;;;;;15.17;6.97;;;11.00;99.90;;;;;;5070610;28;20860;-57
2022/10/05 01:32:03;;;;;;;12.73;6.70;;;10.90;99.90;;;;;;5071345;28;20745;-57
2022/10/05 01:34:42;;;;;;;13.95;6.40;;;10.90;99.90;;;;;;5071188;28;20504;-58
2022/10/05 01:37:37;;;;;;;13.60;6.70;;;10.80;99.90;;;;;;5071475;28;20383;-57
2022/10/05 01:40:02;;;;;;;14.73;6.72;;;10.90;99.90;;;;;;5070786;28;20388;-57
2022/10/05 01:42:46;;;;;;;13.17;6.77;;;10.90;99.90;;;;;;5069889;28;20387;-57
2022/10/05 01:45:38;;;;;;;11.90;6.20;;;10.80;99.90;;;;;;5071038;28;20513;-57
2022/10/05 01:48:37;;;;;;;14.00;6.57;;;10.70;99.90;;;;;;5070869;28;20380;-57
2022/10/05 01:51:20;;;;;;;12.68;6.25;;;10.70;99.90;;;;;;5069711;28;20400;-57
2022/10/05 01:54:15;;;;;;;12.57;6.68;;;10.70;99.90;;;;;;5070467;28;20757;-57
2022/10/05 01:57:02;;;;;;;12.83;6.60;;;10.70;99.90;;;;;;5070223;28;20956;-57
2022/10/05 01:59:35;;;;;;;17.75;7.80;;;10.80;99.90;;;;;;5069498;28;20453;-57
2022/10/05 02:02:09;;;;;;;17.52;7.30;;;10.80;99.90;;;;;;5070374;28;20447;-57
2022/10/05 02:04:52;;;;;;;14.57;6.85;;;10.80;99.90;;;;;;5070003;28;20923;-57
2022/10/05 02:07:28;;;;;;;13.48;6.85;;;10.80;99.90;;;;;;5070185;28;20386;-58
2022/10/05 02:10:14;;;;;;;17.38;7.50;;;10.70;99.90;;;;;;5070558;28;20391;-57
2022/10/05 02:12:41;;;;;;;13.57;6.80;;;10.70;99.90;;;;;;5052445;28;20478;-57
2022/10/05 02:15:12;;;;;;;13.77;7.53;;;10.80;99.90;;;;;;5070595;28;20395;-57
2022/10/05 02:17:44;;;;;;;13.80;7.63;;;10.70;99.90;;;;;;5070088;28;20379;-57
2022/10/05 02:20:13;;;;;;;13.37;7.20;;;10.70;99.90;;;;;;5070291;28;20390;-57
2022/10/05 02:22:50;;;;;;;13.55;6.60;;;10.60;99.90;;;;;;5070006;28;21387;-57
2022/10/05 02:25:21;;;;;;;14.80;7.30;;;10.60;99.90;;;;;;5070054;28;20490;-58
2022/10/05 02:27:51;;;;;;;13.85;7.40;;;10.60;99.90;;;;;;5070092;28;20380;-57
2022/10/05 02:30:18;;;;;;;14.45;6.65;;;10.50;99.90;;;;;;5069584;28;20371;-57
2022/10/05 02:33:00;;;;;;;13.90;7.28;;;10.50;99.90;;;;;;5070445;28;20408;-57
2022/10/05 02:35:26;;;;;;;11.38;6.18;;;10.40;99.90;;;;;;5069226;28;20399;-57
2022/10/05 02:37:57;;;;;;;13.30;7.10;;;10.40;99.90;;;;;;5070213;28;20489;-57
2022/10/05 02:40:58;;;;;;;12.52;6.60;;;10.40;99.90;;;;;;5069079;28;20384;-57
2022/10/05 02:43:42;;;;;;;12.45;6.78;;;10.40;99.90;;;;;;5030758;28;20423;-57
2022/10/05 02:46:23;;;;;;;14.50;7.23;;;10.30;99.90;;;;;;5070022;28;20398;-57
2022/10/05 02:49:21;;;;;;;16.42;7.22;;;10.30;99.90;;;;;;5069861;28;20730;-57
2022/10/05 02:52:25;;;;;;;13.07;6.85;;;10.30;99.90;;;;;;5069703;28;20436;-57
2022/10/05 02:54:59;;;;;;;12.82;7.00;;;10.20;99.90;;;;;;5070097;28;20412;-57
2022/10/05 02:57:34;;;;;;;13.02;6.90;;;10.30;99.90;;;;;;5069095;28;20390;-57
2022/10/05 03:00:03;;;;;;;11.80;6.03;;;11.50;99.90;;;;;;5070193;28;20387;-57
2022/10/05 03:02:47;;;;;;;13.20;6.82;;;10.20;99.90;;;;;;5068701;28;20411;-57
2022/10/05 03:05:29;;;;;;;16.30;7.15;;;10.10;99.90;;;;;;5070144;28;20384;-57
2022/10/05 03:08:24;;;;;;;14.60;6.80;;;10.00;99.90;;;;;;5070192;28;20695;-57
2022/10/05 03:11:19;;;;;;;13.30;6.95;;;9.90;99.90;;;;;;5030972;28;20418;-57
2022/10/05 03:13:56;;;;;;;12.18;6.60;;;9.80;99.90;;;;;;5048403;28;20869;-57
2022/10/05 03:16:37;;;;;;;13.43;6.85;;;9.70;99.90;;;;;;5069328;28;20376;-57
2022/10/05 03:19:10;;;;;;;15.37;7.20;;;9.80;99.90;;;;;;5070280;28;20402;-57
2022/10/05 03:21:51;;;;;;;15.03;7.50;;;9.80;99.90;;;;;;5068856;28;20634;-57
2022/10/05 03:24:26;;;;;;;14.73;7.13;;;9.70;99.90;;;;;;5069134;28;20391;-58
2022/10/05 03:26:58;;;;;;;16.65;7.65;;;9.80;99.90;;;;;;5069640;28;20375;-57
2022/10/05 03:29:41;;;;;;;16.75;8.10;;;9.80;99.90;;;;;;5068867;28;20371;-57
2022/10/05 03:32:40;;;;;;;14.02;7.55;;;9.80;99.90;;;;;;5084232;28;20417;-57
2022/10/05 03:35:13;;;;;;;13.40;6.90;;;9.80;99.90;;;;;;5090344;28;20394;-58
2022/10/05 03:38:03;;;;;;;18.25;7.75;;;9.70;99.90;;;;;;5089092;28;20455;-57
2022/10/05 03:40:52;;;;;;;14.98;7.40;;;9.70;99.90;;;;;;5086993;28;20382;-57
2022/10/05 03:44:05;;;;;;;12.75;7.20;;;9.80;99.90;;;;;;5067893;28;20487;-58
2022/10/05 03:46:49;;;;;;;17.73;7.30;;;9.70;99.90;;;;;;5051060;28;20780;-57
2022/10/05 03:49:33;;;;;;;11.93;6.80;;;9.70;99.90;;;;;;5069152;28;20387;-57
2022/10/05 03:52:11;;;;;;;16.07;7.63;;;9.70;99.90;;;;;;5076441;28;20478;-57
2022/10/05 03:54:54;;;;;;;15.50;7.60;;;9.80;99.90;;;;;;5088539;28;20476;-57
2022/10/05 03:57:27;;;;;;;15.07;6.80;;;9.70;99.90;;;;;;5081523;28;20401;-57
2022/10/05 04:00:03;;;;;;;13.93;7.20;;;9.80;99.90;;;;;;5087288;28;20378;-57
2022/10/05 04:02:41;;;;;;;13.45;7.45;;;10.60;99.90;;;;;;5086405;28;20455;-57
2022/10/05 04:05:09;;;;;;;15.88;7.28;;;9.80;99.90;;;;;;5089124;28;20436;-57
2022/10/05 04:08:10;;;;;;;15.57;7.75;;;9.90;99.90;;;;;;5092286;28;20374;-57
2022/10/05 04:10:45;;;;;;;16.20;7.03;;;9.80;99.90;;;;;;5091735;28;20493;-57
2022/10/05 04:13:20;;;;;;;13.32;7.15;;;9.80;99.90;;;;;;5088468;28;20488;-57
2022/10/05 04:16:05;;;;;;;14.47;8.07;;;9.80;99.90;;;;;;5093289;28;20413;-57
2022/10/05 04:18:46;;;;;;;15.70;7.80;;;9.70;99.90;;;;;;5091727;28;20437;-57
2022/10/05 04:21:53;;;;;;;15.48;8.10;;;9.70;99.90;;;;;;5092285;28;20451;-57
2022/10/05 04:24:36;;;;;;;13.75;7.78;;;9.70;99.90;;;;;;5073455;28;20399;-57
2022/10/05 04:27:20;;;;;;;17.67;8.35;;;9.60;99.90;;;;;;5092958;28;20386;-57
2022/10/05 04:30:10;;;;;;;17.70;7.70;;;9.60;99.90;;;;;;5090888;28;20733;-57
2022/10/05 04:32:46;;;;;;;14.65;7.40;;;9.50;99.90;;;;;;5087753;28;20420;-57
2022/10/05 04:35:53;;;;;;;16.42;8.07;;;9.60;99.90;;;;;;5073468;28;20758;-57
2022/10/05 04:38:27;;;;;;;14.48;8.02;;;9.60;99.90;;;;;;5028786;28;20465;-58
2022/10/05 04:41:14;;;;;;;13.80;7.28;;;9.70;99.90;;;;;;5028475;28;20730;-57
2022/10/05 04:44:10;;;;;;;16.27;8.07;;;9.70;99.90;;;;;;5068134;28;20393;-58
2022/10/05 04:46:36;;;;;;;19.95;8.90;;;9.70;99.90;;;;;;5092121;28;20370;-57
2022/10/05 04:49:29;;;;;;;17.13;8.60;;;9.60;99.90;;;;;;5081940;28;20464;-57
2022/10/05 04:52:15;;;;;;;16.15;8.52;;;9.70;99.90;;;;;;5071437;28;20382;-57
2022/10/05 04:54:54;;;;;;;15.02;8.30;;;9.70;99.90;;;;;;5071160;28;20404;-57
2022/10/05 04:57:28;;;;;;;13.20;7.05;;;9.70;99.90;;;;;;5071262;28;20391;-58
2022/10/05 05:00:24;;;;;;;14.83;7.90;;;9.70;99.90;;;;;;5071823;28;20376;-57
2022/10/05 05:03:14;;;;;;;14.57;8.20;;;9.70;99.90;;;;;;5090312;28;20944;-57
2022/10/05 05:05:42;;;;;;;12.52;7.07;;;9.60;99.90;;;;;;5091048;28;20386;-57
2022/10/05 05:08:31;;;;;;;15.77;7.50;;;9.50;99.90;;;;;;5078090;28;20468;-57
2022/10/05 05:11:50;;;;;;;14.50;7.32;;;9.50;99.90;;;;;;5089213;28;20387;-57
2022/10/05 05:14:45;;;;;;;14.48;7.90;;;9.40;99.90;;;;;;4989892;28;20465;-57
2022/10/05 05:17:31;;;;;;;15.02;7.68;;;9.50;99.90;;;;;;5047045;28;20915;-57
2022/10/05 05:20:18;;;;;;;17.45;8.70;;;9.60;99.90;;;;;;5084087;28;20465;-56
2022/10/05 05:23:28;;;;;;;17.15;7.72;;;9.60;99.90;;;;;;5090947;28;20390;-57
2022/10/05 05:26:06;;;;;;;18.23;8.95;;;9.60;99.90;;;;;;5008974;28;20400;-57
2022/10/05 05:28:52;;;;;;;18.40;8.40;;;9.50;99.90;;;;;;5080179;28;20398;-57
2022/10/05 05:31:21;;;;;;;16.08;7.95;;;9.50;99.90;;;;;;5080593;28;20423;-57
2022/10/05 05:34:09;;;;;;;24.67;9.07;;;9.50;99.90;;;;;;5070841;28;20513;-57
2022/10/05 05:36:52;;;;;;;15.65;7.93;;;9.30;99.90;;;;;;5087497;28;20418;-57
2022/10/05 05:39:28;;;;;;;17.45;8.07;;;9.50;99.90;;;;;;5089828;28;20377;-58
2022/10/05 05:42:08;;;;;;;15.93;7.82;;;9.60;99.90;;;;;;5090579;28;20855;-57
2022/10/05 05:44:46;;;;;;;18.00;8.77;;;9.70;99.90;;;;;;5090094;28;20476;-57
2022/10/05 05:47:36;;;;;;;19.27;8.67;;;9.70;99.90;;;;;;5090984;28;20764;-57
2022/10/05 05:50:07;;;;;;;20.27;9.38;;;9.80;99.90;;;;;;5090755;28;20378;-57
2022/10/05 05:52:45;;;;;;;16.92;9.15;;;9.90;99.90;;;;;;5090154;28;20378;-57
2022/10/05 05:55:20;;;;;;;20.92;9.40;;;10.00;99.90;;;;;;5090735;28;20409;-56
2022/10/05 05:58:26;;;;;;;19.67;9.50;;;10.00;99.90;;;;;;5090761;28;20480;-56
2022/10/05 06:00:54;;;;;;;17.55;9.52;;;10.00;99.90;;;;;;5090785;28;20425;-56
2022/10/05 06:03:23;;;;;;;18.88;8.85;;;9.90;99.90;;;;;;5088737;28;20386;-57
2022/10/05 06:05:58;;;;;;;19.88;10.00;;;10.20;99.90;;;;;;5083629;28;20402;-56
2022/10/05 06:08:39;;;;;;;16.75;8.00;;;10.90;99.90;;;;;;5090075;28;20370;-55
2022/10/05 06:11:33;;;;;;;16.60;7.83;;;11.50;99.90;;;;;;5090191;28;20393;-54
2022/10/05 06:14:04;;;;;;;13.93;7.53;;;12.10;99.90;;;;;;5090444;28;20492;-54
2022/10/05 06:16:37;;;;;;;14.07;6.68;;;13.20;48.80;;;;;;5089688;28;20375;-57
2022/10/05 06:19:18;;;;;;;16.83;7.10;;;14.60;1.00;;;;;;5090536;28;20382;-55
2022/10/05 06:21:56;;;;;;;13.85;6.70;;;16.30;1.00;;;;;;5078767;28;20434;-56
2022/10/05 06:24:39;;;;;;;13.10;6.47;;;17.20;1.00;;;;;;5089919;28;20747;-57
2022/10/05 06:27:22;;;;;;;15.43;6.55;;;18.40;1.00;;;;;;5089582;28;20375;-56
2022/10/05 06:30:03;;;;;;;16.93;6.83;;;17.60;1.00;;;;;;5071551;28;20798;-56
2022/10/05 06:32:32;;;;;;;14.20;6.60;;;18.60;1.00;;;;;;5087735;28;20424;-57
2022/10/05 06:35:06;;;;;;;15.50;6.35;;;19.50;1.00;;;;;;5088796;28;20485;-56
2022/10/05 06:37:56;;;;;;;14.70;7.00;;;19.80;1.00;;;;;;5104854;28;20730;-56
2022/10/05 06:40:33;;;;;;;13.50;6.57;;;20.30;1.00;;;;;;5089421;28;20465;-57
2022/10/05 06:43:37;;;;;;;13.65;7.13;;;21.20;1.00;;;;;;5090467;28;20441;-56
2022/10/05 06:46:14;;;;;;;16.48;8.70;;;22.30;99.90;;;;;;5042629;28;20387;-56
2022/10/05 06:49:04;;;;;;;13.02;10.15;;;22.70;99.90;;;;;;5089351;28;20848;-56
2022/10/05 06:51:44;;;;;;;14.40;8.07;;;22.90;99.90;;;;;;5089603;28;20685;-56
2022/10/05 06:54:31;;;;;;;14.97;12.77;;;23.30;99.90;;;;;;5090225;28;20739;-56
2022/10/05 06:57:47;;;;;;;14.50;12.15;;;23.50;99.90;;;;;;5090313;28;20370;-56
2022/10/05 07:00:22;;;;;;;14.20;11.82;;;23.30;99.90;;;;;;4988080;28;20473;-56
2022/10/05 07:03:03;;;;;;;13.75;10.98;;;22.60;99.90;;;;;;5085540;28;20437;-57
2022/10/05 07:05:44;;;;;;;13.95;11.07;;;22.30;99.90;;;;;;5089222;28;20374;-57
2022/10/05 07:08:31;;;;;;;15.10;13.60;;;22.60;99.90;;;;;;5090220;28;20374;-56
2022/10/05 07:11:26;;;;;;;19.15;17.15;;;22.80;99.90;;;;;;5088486;28;20448;-56
2022/10/05 07:14:11;;;;;;;16.90;15.20;;;23.00;99.90;;;;;;5089849;28;20406;-57
2022/10/05 07:17:00;;;;;;;16.30;14.70;;;23.10;99.90;;;;;;5089002;28;20469;-57
2022/10/05 07:19:51;;;;;;;15.85;14.27;;;;;;;;;;5089236;28;20378;-57
2022/10/05 07:22:39;;;;;;;18.47;16.67;;;23.70;99.90;;;;;;5089776;28;20870;-56
2022/10/05 07:25:27;;;;;;;16.40;14.52;;;24.00;99.90;;;;;;5089450;28;20386;-56
2022/10/05 07:28:01;;;;;;;15.90;14.32;;;24.40;99.90;;;;;;5089593;28;20378;-57
2022/10/05 07:30:28;;;;;;;17.60;15.80;;;25.10;99.90;;;;;;5085116;28;20390;-60
2022/10/05 07:33:35;;;;;;;19.53;17.57;;;25.60;99.90;;;;;;5089135;28;20394;-62
2022/10/05 07:39:25;;;;;;;13.60;7.43;;;26.50;99.90;;;;;;5090332;28;20369;-62
2022/10/05 07:42:24;;;;;;;11.95;7.65;;;26.30;99.90;;;;;;5093059;28;20382;-62
2022/10/05 07:45:11;;;;;;;12.63;7.65;;;25.90;99.90;;;;;;5092845;28;20390;-62
2022/10/05 07:47:52;;;;;;;15.45;7.75;;;25.60;99.90;;;;;;5091815;28;20384;-62
2022/10/05 07:50:44;;;;;;;12.90;11.30;;;24.00;99.90;;;;;;5092885;28;20473;-61
2022/10/05 07:53:14;;;;;;;13.90;11.18;;;23.50;99.90;;;;;;5085234;28;20401;-61
2022/10/05 07:55:48;;;;;;;13.43;10.80;;;23.40;99.90;;;;;;5092278;28;20409;-61
2022/10/05 07:58:13;;;;;;;13.80;10.07;;;23.30;99.90;;;;;;5092174;28;20379;-61
2022/10/05 08:00:42;;;;;;;14.50;9.83;;;23.40;99.90;;;;;;5092119;28;20389;-61
2022/10/05 08:03:16;;;;;;;12.88;10.05;;;23.00;99.90;;;;;;5092706;28;20718;-62
2022/10/05 08:05:45;;;;;;;13.23;10.50;;;23.50;99.90;;;;;;5091981;28;20394;-62
2022/10/05 08:08:58;;;;;;;14.40;9.40;;;23.90;99.90;;;;;;5092545;28;20472;-61
2022/10/05 08:11:32;;;;;;;13.88;10.25;;;23.90;99.90;;;;;;5092165;28;20382;-61
2022/10/05 08:14:26;;;;;;;12.95;9.70;;;23.80;99.90;;;;;;5092759;28;20414;-61
2022/10/05 08:16:56;;;;;;;14.20;10.00;;;23.60;99.90;;;;;;5092722;28;20397;-61
2022/10/05 08:19:47;;;;;;;14.60;10.02;;;24.00;99.90;;;;;;5092528;28;20739;-61
2022/10/05 08:22:22;;;;;;;15.87;9.97;;;23.50;99.90;;;;;;5092586;28;20461;-61
2022/10/05 08:25:04;;;;;;;13.80;9.80;;;23.90;99.90;;;;;;5093098;28;20370;-61
2022/10/05 08:27:51;;;;;;;13.75;10.30;;;24.10;99.90;;;;;;5091475;28;20461;-61
2022/10/05 08:30:16;;;;;;;14.70;10.68;;;23.80;99.90;;;;;;5092371;28;20889;-61
2022/10/05 08:33:06;;;;;;;13.57;9.50;;;23.70;99.90;;;;;;5091238;28;20670;-61
2022/10/05 08:35:39;;;;;;;13.63;9.70;;;23.80;99.90;;;;;;5091669;28;20410;-61
2022/10/05 08:38:16;;;;;;;13.35;9.82;;;23.30;99.90;;;;;;5092349;28;20370;-61
2022/10/05 08:41:24;;;;;;;14.65;9.30;;;23.10;99.90;;;;;;5092159;28;20370;-63
2022/10/05 08:44:08;;;;;;;15.80;9.65;;;22.40;99.90;;;;;;5092446;28;20413;-61
2022/10/05 08:46:58;;;;;;;13.90;8.30;;;21.70;99.90;;;;;;5109883;28;20368;-61
2022/10/05 08:49:59;;;;;;;15.73;8.32;;;21.00;99.90;;;;;;5111687;28;20397;-61
2022/10/05 08:52:49;;;;;;;13.88;8.50;;;21.40;99.90;;;;;;5111433;28;20455;-61
2022/10/05 08:55:42;;;;;;;12.05;7.80;;;21.90;99.90;;;;;;5093935;28;20768;-60
2022/10/05 08:58:10;;;;;;;14.32;7.82;;;22.40;99.90;;;;;;5112318;28;20372;-61
2022/10/05 09:00:40;;;;;;;11.75;7.60;;;23.10;99.90;;;;;;5100664;28;20429;-61
2022/10/05 09:03:17;;;;;;;12.93;7.90;;;23.80;99.90;;;;;;5092177;28;20382;-61
2022/10/05 09:06:19;;;;;;;16.50;8.10;;;24.40;99.90;;;;;;5091236;28;20381;-61
2022/10/05 09:08:58;;;;;;;11.57;7.60;;;25.20;99.90;;;;;;5091192;28;20377;-62
2022/10/05 09:11:41;;;;;;;11.68;7.60;;;25.60;99.90;;;;;;5091926;28;20485;-61
2022/10/05 09:14:24;;;;;;;13.65;8.00;;;25.50;99.90;;;;;;5091041;28;20417;-61
2022/10/05 09:17:07;;;;;;;12.20;8.50;;;25.60;99.90;;;;;;5091496;28;20852;-61
2022/10/05 09:19:50;;;;;;;13.70;9.07;;;26.20;99.90;;;;;;5090666;28;20815;-61
2022/10/05 09:22:53;;;;;;;13.93;11.27;;;27.30;99.90;;;;;;5091545;28;20374;-62
2022/10/05 09:25:28;;;;;;;17.27;14.45;;;27.60;99.90;;;;;;5091669;28;20393;-62
2022/10/05 09:27:57;;;;;;;15.20;13.70;;;27.60;99.90;;;;;;5090921;28;20366;-62
2022/10/05 09:30:32;;;;;;;17.48;15.98;;;27.30;99.90;;;;;;5090761;28;20406;-61
2022/10/05 09:33:09;;;;;;;13.93;11.50;;;27.60;99.90;;;;;;5090805;28;20428;-62
2022/10/05 09:35:56;;;;;;;15.67;12.23;;;28.10;99.90;;;;;;5090902;28;20872;-62
2022/10/05 09:38:38;;;;;;;18.65;17.00;;;27.80;99.90;;;;;;5091356;28;20390;-61
2022/10/05 09:41:18;;;;;;;14.45;13.05;;;27.60;99.90;;;;;;5091700;28;20409;-61
2022/10/05 09:44:12;;;;;;;13.40;10.85;;;27.90;99.90;;;;;;5090726;28;21125;-62
2022/10/05 09:46:43;;;;;;;12.25;9.55;;;28.10;99.90;;;;;;5090665;28;20415;-61
2022/10/05 09:49:10;;;;;;;11.65;10.45;;;27.90;99.90;;;;;;5090970;28;20483;-62
2022/10/05 09:52:04;;;;;;;13.05;11.65;;;27.10;99.90;;;;;;5090065;28;20465;-62
2022/10/05 09:54:52;;;;;;;14.32;10.15;;;27.10;99.90;;;;;;5088859;28;20894;-62
2022/10/05 09:57:49;;;;;;;12.50;11.10;;;27.70;99.90;;;;;;5091662;28;20469;-62
2022/10/05 10:00:21;;;;;;;12.27;10.90;;;27.70;99.90;;;;;;5091502;28;20416;-62
2022/10/05 10:03:06;;;;;;;12.20;9.88;;;27.70;99.90;;;;;;5089672;28;20378;-62
2022/10/05 10:06:18;;;;;;;13.63;12.32;;;28.10;99.90;;;;;;5090370;28;20385;-62
2022/10/05 10:09:07;;;;;;;12.17;10.87;;;28.70;99.90;;;;;;5047743;28;20381;-62
2022/10/05 10:11:57;;;;;;;16.70;14.55;;;29.50;99.90;;;;;;5090619;28;20382;-61
2022/10/05 10:14:44;;;;;;;11.93;10.73;;;29.50;99.90;;;;;;5090456;28;20885;-62
2022/10/05 10:17:50;;;;;;;11.40;10.20;;;28.60;99.90;;;;;;5090931;28;20723;-62
2022/10/05 10:20:15;;;;;;;14.13;10.88;;;28.20;99.90;;;;;;5091280;28;20373;-62
2022/10/05 10:22:44;;;;;;;15.52;14.20;;;29.10;99.90;;;;;;5090301;28;20386;-62
2022/10/05 10:25:18;;;;;;;11.77;7.03;;;29.50;99.90;;;;;;5089977;28;20767;-63
2022/10/05 10:28:08;;;;;;;18.40;16.70;;;30.10;99.90;;;;;;5089544;28;21320;-63
2022/10/05 10:30:42;;;;;;;16.65;12.77;;;30.40;99.90;;;;;;5089684;28;20390;-62
2022/10/05 10:33:25;;;;;;;13.98;12.43;;;29.10;99.90;;;;;;5090485;28;20526;-62
2022/10/05 10:36:01;;;;;;;12.65;11.38;;;29.20;99.90;;;;;;5090438;28;20465;-62
2022/10/05 10:38:29;;;;;;;11.47;9.43;;;28.90;99.90;;;;;;5090207;28;20382;-62
2022/10/05 10:41:05;;;;;;;11.70;9.83;;;29.40;99.90;;;;;;5089650;28;20728;-62
2022/10/05 10:44:24;;;;;;;11.80;8.98;;;29.80;99.90;;;;;;5105782;28;20398;-62
2022/10/05 10:47:29;;;;;;;11.25;8.77;;;30.00;99.90;;;;;;5008070;28;20396;-61
2022/10/05 10:50:22;;;;;;;11.10;9.90;;;30.40;99.90;;;;;;5048011;28;20851;-62
2022/10/05 10:53:25;;;;;;;11.20;9.05;;;30.20;99.90;;;;;;5089697;28;20833;-63
2022/10/05 10:56:15;;;;;;;12.45;9.30;;;30.30;99.90;;;;;;5089878;28;20497;-62
2022/10/05 10:59:24;;;;;;;9.63;7.50;;;30.10;99.90;;;;;;5089397;28;20420;-62
2022/10/05 11:02:27;;;;;;;11.80;7.85;;;29.30;99.90;;;;;;5007573;28;20412;-63
2022/10/05 11:05:00;;;;;;;8.88;7.47;;;28.80;99.90;;;;;;5089738;28;20394;-58
2022/10/05 11:07:46;;;;;;;10.70;8.52;;;29.10;99.90;;;;;;5089645;28;20397;-57
2022/10/05 11:10:49;;;;;;;10.45;7.40;;;29.50;99.90;;;;;;5089282;28;20397;-58
2022/10/05 11:13:25;;;;;;;11.30;7.90;;;29.50;99.90;;;;;;5082339;28;20398;-57
2022/10/05 11:16:05;;;;;;;9.50;7.68;;;28.50;99.90;;;;;;5092153;28;20436;-57
2022/10/05 11:18:57;;;;;;;11.23;7.27;;;27.40;99.90;;;;;;5093406;28;20470;-57
2022/10/05 11:21:32;;;;;;;11.40;6.68;;;27.00;99.90;;;;;;5093715;28;20384;-57
2022/10/05 11:24:07;;;;;;;8.32;5.90;;;26.50;99.90;;;;;;5094381;28;20374;-57
2022/10/05 11:27:01;;;;;;;7.83;5.13;;;26.20;99.90;;;;;;5093139;28;20465;-57
2022/10/05 11:29:45;;;;;;;7.70;5.30;;;25.90;99.90;;;;;;5079853;28;20407;-57
2022/10/05 11:32:23;;;;;;;10.77;4.90;;;25.70;99.90;;;;;;5072950;28;20431;-57
2022/10/05 11:35:16;;;;;;;10.23;4.50;;;25.60;99.90;;;;;;5091497;28;20410;-57
2022/10/05 11:38:19;;;;;;;8.50;4.90;;;25.90;99.90;;;;;;5090761;28;20390;-57
2022/10/05 11:40:51;;;;;;;7.72;4.72;;;26.20;99.90;;;;;;5093236;28;20380;-57
2022/10/05 11:43:28;;;;;;;9.90;4.53;;;26.20;99.90;;;;;;5093547;28;20374;-57
2022/10/05 11:46:15;;;;;;;7.10;4.43;;;26.40;99.90;;;;;;5092970;28;20382;-57
2022/10/05 11:49:23;;;;;;;9.50;5.07;;;26.50;99.90;;;;;;5092655;28;20382;-57
2022/10/05 11:52:09;;;;;;;9.10;4.80;;;26.80;99.90;;;;;;5063593;28;20412;-57
2022/10/05 11:54:46;;;;;;;9.32;4.40;;;27.00;99.90;;;;;;5091925;28;20894;-57
2022/10/05 11:57:20;;;;;;;8.60;4.70;;;27.00;99.90;;;;;;5093269;28;20393;-58
2022/10/05 11:59:49;;;;;;;10.73;4.60;;;26.70;99.90;;;;;;5092122;28;20859;-57
2022/10/05 12:02:33;;;;;;;8.43;4.40;;;26.50;99.90;;;;;;5093157;28;20390;-57
2022/10/05 12:05:14;;;;;;;7.63;4.38;;;26.10;99.90;;;;;;5092400;28;20875;-57
2022/10/05 12:08:21;;;;;;;7.32;4.30;;;26.00;99.90;;;;;;5092498;28;20413;-57
2022/10/05 12:11:24;;;;;;;8.68;4.70;;;26.00;99.90;;;;;;5029691;28;20415;-57
2022/10/05 12:14:16;;;;;;;9.43;4.20;;;26.20;99.90;;;;;;5092496;28;20421;-57
2022/10/05 12:16:49;;;;;;;8.10;4.55;;;26.20;99.90;;;;;;5088481;28;20400;-57
2022/10/05 12:19:27;;;;;;;8.60;4.57;;;26.30;99.90;;;;;;5077023;28;20416;-58
2022/10/05 12:22:17;;;;;;;8.10;5.10;;;26.40;99.90;;;;;;5072449;28;20372;-58
2022/10/05 12:25:05;;;;;;;6.70;4.13;;;26.60;99.90;;;;;;5071981;28;20387;-58
2022/10/05 12:27:38;;;;;;;6.80;4.00;;;26.80;99.90;;;;;;5087067;28;20469;-57
2022/10/05 12:30:33;;;;;;;9.20;4.10;;;26.50;99.90;;;;;;5092934;28;20805;-57
2022/10/05 12:33:05;;;;;;;8.55;4.00;;;26.30;99.90;;;;;;5091106;28;20396;-57
2022/10/05 12:35:31;;;;;;;7.10;4.07;;;26.40;99.90;;;;;;5091480;28;20405;-57
2022/10/05 12:38:27;;;;;;;6.68;3.70;;;26.40;99.90;;;;;;5092488;28;20466;-57
2022/10/05 12:41:04;;;;;;;6.35;3.90;;;26.40;99.90;;;;;;5071673;28;20409;-57
2022/10/05 12:44:11;;;;;;;7.22;4.10;;;26.40;99.90;;;;;;5091888;28;20398;-58
2022/10/05 12:47:00;;;;;;;6.40;3.50;;;26.50;99.90;;;;;;5008953;28;20404;-58
2022/10/05 12:49:56;;;;;;;6.32;3.83;;;26.70;99.90;;;;;;5009783;28;20408;-58
2022/10/05 12:52:24;;;;;;;7.80;3.78;;;26.90;99.90;;;;;;5077437;28;20390;-57
2022/10/05 12:54:58;;;;;;;10.75;3.92;;;26.90;99.90;;;;;;5080080;28;20399;-57
2022/10/05 12:57:45;;;;;;;7.55;4.40;;;26.90;99.90;;;;;;5071706;28;20819;-58
2022/10/05 13:00:15;;;;;;;9.30;4.43;;;27.10;99.90;;;;;;5088600;28;20396;-58
2022/10/05 13:02:47;;;;;;;7.10;4.40;;;27.20;99.90;;;;;;5088128;28;20447;-57
2022/10/05 13:05:30;;;;;;;7.68;3.80;;;26.90;99.90;;;;;;5071644;28;20473;-57
2022/10/05 13:08:06;;;;;;;7.97;4.30;;;26.40;99.90;;;;;;5092260;28;20414;-57
2022/10/05 13:10:48;;;;;;;7.87;4.00;;;26.40;99.90;;;;;;5089753;28;20409;-58
2022/10/05 13:13:35;;;;;;;7.00;4.30;;;26.70;99.90;;;;;;5091674;28;20374;-58
2022/10/05 13:16:05;;;;;;;7.60;4.70;;;26.40;99.90;;;;;;5091794;28;20489;-58
2022/10/05 13:18:43;;;;;;;8.13;4.70;;;26.20;99.90;;;;;;5091485;28;20390;-58
2022/10/05 13:21:37;;;;;;;9.27;4.60;;;26.40;99.90;;;;;;5091400;28;20382;-57
2022/10/05 13:24:21;;;;;;;10.07;4.23;;;26.30;99.90;;;;;;5089471;28;20374;-57
2022/10/05 13:26:53;;;;;;;8.75;4.35;;;26.30;99.90;;;;;;5091503;28;20409;-58
2022/10/05 13:29:33;;;;;;;10.27;4.23;;;26.10;99.90;;;;;;5091253;28;20375;-59
2022/10/05 13:32:11;;;;;;;7.33;4.40;;;26.00;99.90;;;;;;5091404;28;20402;-57
2022/10/05 13:34:46;;;;;;;8.07;4.68;;;26.00;99.90;;;;;;5088327;28;20406;-58
2022/10/05 13:37:35;;;;;;;8.68;4.53;;;25.90;99.90;;;;;;5070166;28;20457;-57
2022/10/05 13:40:15;;;;;;;9.80;4.10;;;26.00;99.90;;;;;;5071318;28;20383;-58
2022/10/05 13:42:44;;;;;;;9.65;4.18;;;26.10;99.90;;;;;;5070151;28;20367;-58
2022/10/05 13:45:17;;;;;;;9.10;4.15;;;26.20;99.90;;;;;;5070991;28;20958;-58
2022/10/05 13:47:52;;;;;;;9.20;4.10;;;26.10;99.90;;;;;;5070501;28;20433;-58
2022/10/05 13:50:31;;;;;;;8.57;4.13;;;25.90;99.90;;;;;;5071617;28;20380;-57
2022/10/05 13:53:33;;;;;;;8.57;4.50;;;25.90;99.90;;;;;;5070274;28;20427;-58
2022/10/05 13:56:21;;;;;;;7.68;4.57;;;25.80;99.90;;;;;;5070839;28;20416;-57
2022/10/05 13:58:53;;;;;;;7.70;4.03;;;26.00;99.90;;;;;;5069982;28;20465;-58
2022/10/05 14:01:18;;;;;;;7.20;4.20;;;25.90;99.90;;;;;;5070237;28;20400;-57